createdAt,value
2023-03-28T00:01:03.564Z,44.30
2023-03-28T00:03:35.462Z,39.50
2023-03-28T00:06:05.581Z,45.90
2023-03-28T00:08:32.404Z,48.00
2023-03-28T00:11:20.762Z,41.10
2023-03-28T00:14:03.460Z,40.30
2023-03-28T00:16:36.982Z,34.00
2023-03-28T00:19:08.144Z,31.00
2023-03-28T00:21:41.436Z,30.30
2023-03-28T00:24:13.663Z,24.40
2023-03-28T00:26:41.999Z,24.20
2023-03-28T00:29:11.149Z,30.00
2023-03-28T00:31:39.391Z,29.40
2023-03-28T00:34:07.009Z,31.70
2023-03-28T00:36:34.141Z,32.10
2023-03-28T00:39:06.799Z,34.40
2023-03-28T00:41:43.469Z,28.60
2023-03-28T00:44:58.016Z,33.00
2023-03-28T00:47:36.817Z,30.40
2023-03-28T00:50:27.603Z,29.90
2023-03-28T00:53:04.555Z,25.20
2023-03-28T00:55:58.827Z,27.20
2023-03-28T00:58:30.980Z,38.30
2023-03-28T01:00:58.336Z,34.30
2023-03-28T01:03:33.475Z,29.80
2023-03-28T01:06:06.214Z,29.30
2023-03-28T01:08:41.630Z,27.60
2023-03-28T01:11:11.403Z,26.20
2023-03-28T01:13:46.485Z,26.90
2023-03-28T01:16:15.903Z,26.80
2023-03-28T01:18:51.362Z,22.60
2023-03-28T01:21:55.657Z,20.80
2023-03-28T01:25:08.363Z,25.40
2023-03-28T01:28:24.838Z,17.90
2023-03-28T01:31:43.974Z,21.10
2023-03-28T01:34:38.669Z,25.20
2023-03-28T01:37:34.657Z,26.20
2023-03-28T01:40:23.072Z,23.40
2023-03-28T01:43:15.563Z,16.30
2023-03-28T01:46:18.699Z,21.50
2023-03-28T01:48:56.949Z,17.50
2023-03-28T01:51:44.876Z,19.80
2023-03-28T01:54:46.334Z,20.70
2023-03-28T01:57:30.707Z,19.90
2023-03-28T02:00:19.699Z,18.30
2023-03-28T02:02:57.013Z,15.50
2023-03-28T02:05:26.763Z,19.00
2023-03-28T02:07:54.640Z,16.40
2023-03-28T02:13:25.570Z,17.30
2023-03-28T02:15:59.360Z,14.10
2023-03-28T02:18:34.166Z,17.30
2023-03-28T02:21:08.767Z,14.90
2023-03-28T02:23:43.551Z,22.20
2023-03-28T02:26:10.693Z,24.20
2023-03-28T02:28:40.604Z,20.30
2023-03-28T02:31:07.523Z,20.60
2023-03-28T02:33:46.023Z,18.30
2023-03-28T02:36:40.404Z,20.60
2023-03-28T02:39:34.079Z,18.50
2023-03-28T02:42:46.331Z,19.60
2023-03-28T02:45:40.842Z,23.30
2023-03-28T02:48:39.060Z,19.70
2023-03-28T02:51:30.212Z,19.80
2023-03-28T02:54:22.691Z,26.00
2023-03-28T02:57:08.143Z,27.30
2023-03-28T02:59:45.437Z,22.90
2023-03-28T03:02:17.993Z,23.30
2023-03-28T03:04:44.784Z,22.90
2023-03-28T03:07:11.355Z,21.40
2023-03-28T03:09:37.786Z,16.60
2023-03-28T03:12:04.417Z,21.30
2023-03-28T03:14:30.997Z,18.80
2023-03-28T03:16:57.416Z,20.10
2023-03-28T03:19:23.843Z,17.30
2023-03-28T03:21:50.299Z,19.60
2023-03-28T03:24:16.711Z,16.70
2023-03-28T03:26:43.168Z,16.10
2023-03-28T03:29:09.650Z,16.40
2023-03-28T03:31:37.010Z,18.40
2023-03-28T03:34:03.777Z,17.90
2023-03-28T03:36:31.705Z,23.30
2023-03-28T03:38:58.483Z,22.80
2023-03-28T03:41:24.962Z,16.10
2023-03-28T03:43:51.541Z,13.20
2023-03-28T03:46:18.518Z,12.60
2023-03-28T03:48:49.309Z,12.50
2023-03-28T03:51:16.325Z,15.20
2023-03-28T03:53:42.739Z,16.80
2023-03-28T03:56:09.653Z,15.10
2023-03-28T03:58:36.611Z,12.70
2023-03-28T04:01:03.695Z,12.50
2023-03-28T04:03:30.285Z,17.00
2023-03-28T04:05:58.161Z,17.10
2023-03-28T04:08:25.270Z,15.50
2023-03-28T04:10:52.245Z,12.90
2023-03-28T04:13:18.971Z,10.00
2023-03-28T04:15:47.710Z,19.90
2023-03-28T04:18:15.455Z,14.00
2023-03-28T04:20:43.427Z,20.40
2023-03-28T04:23:10.131Z,14.50
2023-03-28T04:25:41.465Z,18.20
2023-03-28T04:28:09.660Z,24.50
2023-03-28T04:30:36.222Z,20.50
2023-03-28T04:33:04.252Z,18.90
2023-03-28T04:35:30.780Z,24.00
2023-03-28T04:38:00.174Z,19.40
2023-03-28T04:40:27.968Z,65.30
2023-03-28T04:42:54.813Z,153.50
2023-03-28T04:45:21.257Z,246.60
2023-03-28T04:47:48.679Z,113.40
2023-03-28T04:50:15.319Z,35.80
2023-03-28T04:52:41.776Z,30.10
2023-03-28T04:55:10.240Z,19.50
2023-03-28T04:57:38.262Z,15.20
2023-03-28T05:00:09.776Z,16.30
2023-03-28T05:02:36.477Z,23.00
2023-03-28T05:05:03.715Z,19.20
2023-03-28T05:07:30.158Z,22.00
2023-03-28T05:09:56.557Z,18.90
2023-03-28T05:12:22.982Z,22.30
2023-03-28T05:14:49.342Z,14.80
2023-03-28T05:17:16.083Z,11.70
2023-03-28T05:19:42.486Z,13.70
2023-03-28T05:22:08.903Z,15.90
2023-03-28T05:24:36.849Z,14.80
2023-03-28T05:27:03.586Z,9.90
2023-03-28T05:29:30.348Z,24.90
2023-03-28T05:31:56.806Z,19.80
2023-03-28T05:34:24.260Z,22.10
2023-03-28T05:36:51.100Z,18.90
2023-03-28T05:39:17.608Z,20.20
2023-03-28T05:41:43.982Z,13.90
2023-03-28T05:44:10.369Z,20.10
2023-03-28T05:46:36.788Z,16.10
2023-03-28T05:49:03.216Z,11.00
2023-03-28T05:51:29.593Z,13.00
2023-03-28T05:53:56.477Z,15.50
2023-03-28T05:56:22.892Z,16.80
2023-03-28T05:58:49.284Z,10.30
2023-03-28T06:01:18.479Z,13.70
2023-03-28T06:03:45.640Z,9.20
2023-03-28T06:06:12.107Z,11.10
2023-03-28T06:08:38.484Z,13.70
2023-03-28T06:11:05.745Z,11.80
2023-03-28T06:13:32.239Z,8.10
2023-03-28T06:15:58.775Z,11.30
2023-03-28T06:18:25.998Z,12.30
2023-03-28T06:20:52.449Z,8.70
2023-03-28T06:23:18.858Z,13.30
2023-03-28T06:25:45.341Z,11.60
2023-03-28T06:28:11.932Z,10.70
2023-03-28T06:30:40.061Z,12.00
2023-03-28T06:33:07.214Z,14.00
2023-03-28T06:35:34.506Z,6.40
2023-03-28T06:38:01.081Z,6.20
2023-03-28T06:40:27.542Z,9.60
2023-03-28T06:42:53.938Z,14.30
2023-03-28T06:45:20.532Z,8.30
2023-03-28T06:47:50.868Z,6.40
2023-03-28T06:50:17.843Z,10.40
2023-03-28T06:52:44.956Z,9.60
2023-03-28T06:55:11.487Z,8.10
2023-03-28T06:57:38.721Z,6.30
2023-03-28T07:00:09.698Z,8.70
2023-03-28T07:02:36.150Z,8.80
2023-03-28T07:05:03.151Z,7.40
2023-03-28T07:07:29.548Z,4.80
2023-03-28T07:09:56.078Z,6.80
2023-03-28T07:12:22.686Z,10.60
2023-03-28T07:14:49.156Z,8.70
2023-03-28T07:17:15.859Z,11.90
2023-03-28T07:19:42.348Z,8.90
2023-03-28T07:22:08.827Z,7.40
2023-03-28T07:24:35.375Z,7.20
2023-03-28T07:27:14.788Z,8.30
2023-03-28T07:29:42.362Z,9.50
2023-03-28T07:32:08.823Z,6.90
2023-03-28T07:34:35.510Z,6.90
2023-03-28T07:37:02.404Z,8.30
2023-03-28T07:39:29.572Z,9.00
2023-03-28T07:41:56.031Z,12.40
2023-03-28T07:44:22.431Z,10.80
2023-03-28T07:46:51.180Z,10.50
2023-03-28T07:49:19.984Z,6.30
2023-03-28T07:51:48.018Z,5.30
2023-03-28T07:54:17.595Z,6.10
2023-03-28T07:56:48.640Z,6.50
2023-03-28T07:59:15.332Z,7.50
2023-03-28T08:01:44.602Z,6.60
2023-03-28T08:04:13.062Z,7.30
2023-03-28T08:06:45.845Z,5.40
2023-03-28T08:09:16.030Z,6.20
2023-03-28T08:11:44.436Z,4.60
2023-03-28T08:14:17.396Z,3.40
2023-03-28T08:17:01.654Z,5.40
2023-03-28T08:19:37.353Z,4.20
2023-03-28T08:22:04.202Z,4.80
2023-03-28T08:24:45.744Z,4.70
2023-03-28T08:27:12.174Z,6.20
2023-03-28T08:29:47.852Z,4.60
2023-03-28T08:32:14.311Z,5.90
2023-03-28T08:34:55.914Z,5.70
2023-03-28T08:37:22.409Z,8.20
2023-03-28T08:39:55.887Z,5.10
2023-03-28T08:42:53.494Z,6.40
2023-03-28T08:45:50.633Z,7.30
2023-03-28T08:48:37.380Z,7.10
2023-03-28T08:51:22.300Z,6.40
2023-03-28T08:54:33.087Z,5.20
2023-03-28T08:57:04.877Z,7.10
2023-03-28T09:00:13.450Z,5.60
2023-03-28T09:02:41.189Z,5.80
2023-03-28T09:05:55.464Z,6.60
2023-03-28T09:09:10.603Z,8.10
2023-03-28T09:12:15.689Z,7.70
2023-03-28T09:15:39.015Z,6.60
2023-03-28T09:18:51.990Z,3.70
2023-03-28T09:22:12.552Z,4.50
2023-03-28T09:25:16.626Z,4.10
2023-03-28T09:28:18.274Z,5.00
2023-03-28T09:30:50.603Z,2.70
2023-03-28T09:33:39.184Z,4.40
2023-03-28T09:36:14.758Z,5.00
2023-03-28T09:38:49.041Z,4.10
2023-03-28T09:41:33.621Z,3.90
2023-03-28T09:44:13.470Z,3.70
2023-03-28T09:46:44.348Z,3.00
2023-03-28T09:49:18.418Z,2.70
2023-03-28T09:51:59.069Z,4.30
2023-03-28T09:54:34.977Z,2.90
2023-03-28T09:57:10.783Z,4.00
2023-03-28T10:02:32.902Z,3.70
2023-03-28T10:05:00.475Z,4.30
2023-03-28T10:07:46.619Z,3.80
2023-03-28T10:10:23.459Z,3.80
2023-03-28T10:12:58.520Z,2.70
2023-03-28T10:15:38.337Z,5.00
2023-03-28T10:18:05.778Z,3.20
2023-03-28T10:20:51.962Z,3.40
2023-03-28T10:23:28.290Z,3.40
2023-03-28T10:25:55.337Z,2.60
2023-03-28T10:28:43.338Z,3.80
2023-03-28T10:31:29.309Z,4.40
2023-03-28T10:34:02.771Z,4.80
2023-03-28T10:36:40.582Z,3.70
2023-03-28T10:39:32.307Z,4.30
2023-03-28T10:42:11.950Z,5.40
2023-03-28T10:44:41.132Z,3.50
2023-03-28T10:47:19.043Z,4.60
2023-03-28T10:49:51.017Z,5.30
2023-03-28T10:53:01.815Z,4.80
2023-03-28T10:55:40.606Z,3.80
2023-03-28T10:58:25.557Z,4.60
2023-03-28T11:01:05.447Z,3.60
2023-03-28T11:04:04.577Z,2.80
2023-03-28T11:09:48.618Z,4.10
2023-03-28T11:13:05.067Z,3.70
2023-03-28T11:16:06.121Z,2.70
2023-03-28T11:19:17.796Z,4.50
2023-03-28T11:22:11.452Z,3.40
2023-03-28T11:25:28.783Z,5.30
2023-03-28T11:28:46.743Z,4.60
2023-03-28T11:31:24.345Z,3.30
2023-03-28T11:34:14.748Z,2.70
2023-03-28T11:36:58.370Z,5.20
2023-03-28T11:39:46.997Z,3.60
2023-03-28T11:42:30.041Z,3.20
2023-03-28T11:45:18.612Z,3.20
2023-03-28T11:48:27.708Z,3.40
2023-03-28T11:51:32.463Z,3.70
2023-03-28T11:54:23.986Z,5.10
2023-03-28T11:56:59.960Z,4.80
2023-03-28T11:59:43.829Z,4.90
2023-03-28T12:02:34.201Z,4.50
2023-03-28T12:05:15.299Z,4.50
2023-03-28T12:10:53.738Z,3.00
2023-03-28T12:14:08.685Z,3.40
2023-03-28T12:16:47.191Z,3.90
2023-03-28T12:19:30.944Z,5.20
2023-03-28T12:22:09.217Z,3.30
2023-03-28T12:24:45.215Z,4.50
2023-03-28T12:27:26.830Z,3.40
2023-03-28T12:30:00.580Z,3.60
2023-03-28T12:33:11.053Z,2.90
2023-03-28T12:35:46.656Z,2.20
2023-03-28T12:38:58.686Z,4.50
2023-03-28T12:41:38.852Z,3.40
2023-03-28T12:44:24.412Z,4.00
2023-03-28T12:46:59.731Z,3.10
2023-03-28T12:49:57.795Z,4.50
2023-03-28T12:52:44.147Z,3.60
2023-03-28T12:55:37.394Z,4.90
2023-03-28T12:58:28.420Z,3.00
2023-03-28T13:01:52.343Z,2.90
2023-03-28T13:04:54.278Z,5.40
2023-03-28T13:07:55.974Z,4.00
2023-03-28T13:10:42.432Z,2.80
2023-03-28T13:13:48.691Z,3.30
2023-03-28T13:16:24.958Z,4.80
2023-03-28T13:19:43.473Z,3.10
2023-03-28T13:22:54.539Z,3.50
2023-03-28T13:25:28.195Z,4.30
2023-03-28T13:28:00.614Z,6.60
2023-03-28T13:30:31.899Z,5.20
2023-03-28T13:33:07.770Z,2.70
2023-03-28T13:36:20.449Z,3.90
2023-03-28T13:39:05.855Z,4.70
2023-03-28T13:41:55.964Z,4.80
2023-03-28T13:44:40.773Z,3.90
2023-03-28T13:47:27.799Z,3.60
2023-03-28T13:50:14.451Z,3.80
2023-03-28T13:52:41.260Z,2.90
2023-03-28T13:55:23.618Z,3.30
2023-03-28T13:57:52.564Z,4.70
2023-03-28T14:00:28.958Z,4.90
2023-03-28T14:03:05.486Z,4.80
2023-03-28T14:05:33.911Z,4.70
2023-03-28T14:08:30.029Z,5.70
2023-03-28T14:11:03.642Z,4.60
2023-03-28T14:13:31.157Z,6.20
2023-03-28T14:15:58.248Z,6.50
2023-03-28T14:18:34.592Z,4.70
2023-03-28T14:21:13.474Z,8.00
2023-03-28T14:23:55.050Z,6.00
2023-03-28T14:26:23.572Z,5.50
2023-03-28T14:29:04.231Z,6.10
2023-03-28T14:31:37.119Z,3.60
2023-03-28T14:34:34.564Z,7.10
2023-03-28T14:37:06.150Z,6.00
2023-03-28T14:39:37.337Z,4.00
2023-03-28T14:42:07.076Z,6.60
2023-03-28T14:44:53.894Z,4.50
2023-03-28T14:47:36.914Z,5.20
2023-03-28T14:50:05.293Z,4.50
2023-03-28T14:52:45.134Z,4.50
2023-03-28T14:55:21.079Z,4.50
2023-03-28T14:57:52.517Z,4.40
2023-03-28T15:00:39.319Z,5.20
2023-03-28T15:03:12.777Z,5.30
2023-03-28T15:05:41.844Z,6.10
2023-03-28T15:08:39.118Z,5.30
2023-03-28T15:11:12.579Z,3.50
2023-03-28T15:13:42.877Z,2.70
2023-03-28T15:16:26.257Z,1.90
2023-03-28T15:19:07.046Z,3.80
2023-03-28T15:21:40.729Z,4.80
2023-03-28T15:24:18.298Z,5.60
2023-03-28T15:26:53.667Z,4.40
2023-03-28T15:29:25.300Z,6.80
2023-03-28T15:32:03.052Z,5.20
2023-03-28T15:34:29.712Z,5.10
2023-03-28T15:37:03.755Z,4.40
2023-03-28T15:39:34.740Z,5.50
2023-03-28T15:42:21.333Z,5.80
2023-03-28T15:44:56.752Z,7.10
2023-03-28T15:47:29.497Z,5.80
2023-03-28T15:50:04.026Z,4.60
2023-03-28T15:52:31.637Z,5.40
2023-03-28T15:55:01.512Z,3.50
2023-03-28T15:57:30.523Z,2.30
2023-03-28T15:59:58.607Z,4.80
2023-03-28T16:02:25.140Z,4.50
2023-03-28T16:05:10.843Z,4.10
2023-03-28T16:07:43.462Z,4.40
2023-03-28T16:10:10.898Z,6.00
2023-03-28T16:12:37.370Z,6.20
2023-03-28T16:15:05.943Z,8.00
2023-03-28T16:17:33.618Z,4.90
2023-03-28T16:20:00.196Z,6.20
2023-03-28T16:22:27.137Z,6.40
2023-03-28T16:24:55.217Z,9.80
2023-03-28T16:27:22.018Z,4.80
2023-03-28T16:29:48.807Z,5.80
2023-03-28T16:32:16.848Z,10.00
2023-03-28T16:34:43.923Z,16.80
2023-03-28T16:37:11.443Z,10.20
2023-03-28T16:39:38.760Z,7.40
2023-03-28T16:42:06.170Z,4.90
2023-03-28T16:44:33.555Z,6.80
2023-03-28T16:47:02.268Z,9.10
2023-03-28T16:49:29.898Z,7.70
2023-03-28T16:51:56.794Z,7.00
2023-03-28T16:54:24.187Z,8.20
2023-03-28T16:56:50.918Z,6.20
2023-03-28T16:59:17.373Z,6.20
2023-03-28T17:01:46.175Z,6.90
2023-03-28T17:04:12.762Z,5.60
2023-03-28T17:06:39.423Z,6.10
2023-03-28T17:09:06.195Z,6.00
2023-03-28T17:11:33.002Z,4.40
2023-03-28T17:13:59.792Z,5.70
2023-03-28T17:16:27.241Z,4.30
2023-03-28T17:18:53.792Z,6.80
2023-03-28T17:21:20.427Z,7.40
2023-03-28T17:23:48.833Z,5.70
2023-03-28T17:26:17.225Z,5.80
2023-03-28T17:28:44.825Z,6.10
2023-03-28T17:31:18.686Z,3.80
2023-03-28T17:33:47.121Z,5.00
2023-03-28T17:36:26.796Z,6.60
2023-03-28T17:38:56.618Z,4.90
2023-03-28T17:41:24.563Z,6.20
2023-03-28T17:43:53.439Z,5.70
2023-03-28T17:46:21.790Z,7.00
2023-03-28T17:48:48.890Z,5.80
2023-03-28T17:51:16.640Z,6.70
2023-03-28T17:53:46.505Z,8.90
2023-03-28T17:56:14.410Z,7.60
2023-03-28T17:58:41.024Z,9.00
2023-03-28T18:01:14.676Z,5.30
2023-03-28T18:03:41.492Z,7.00
2023-03-28T18:06:08.648Z,5.20
2023-03-28T18:08:36.472Z,9.30
2023-03-28T18:11:14.113Z,7.90
2023-03-28T18:13:41.901Z,8.30
2023-03-28T18:16:12.926Z,7.50
2023-03-28T18:18:40.441Z,8.40
2023-03-28T18:21:08.429Z,9.20
2023-03-28T18:23:36.818Z,9.10
2023-03-28T18:26:04.848Z,6.40
2023-03-28T18:28:31.299Z,10.00
2023-03-28T18:31:13.076Z,9.20
2023-03-28T18:33:41.186Z,10.00
2023-03-28T18:36:09.457Z,8.10
2023-03-28T18:38:42.732Z,8.10
2023-03-28T18:41:12.798Z,7.50
2023-03-28T18:43:42.533Z,7.10
2023-03-28T18:46:15.498Z,8.30
2023-03-28T18:48:42.627Z,9.40
2023-03-28T18:51:09.106Z,7.10
2023-03-28T18:53:39.373Z,12.60
2023-03-28T18:56:07.792Z,11.10
2023-03-28T18:58:36.664Z,11.10
2023-03-28T19:01:03.729Z,9.30
2023-03-28T19:03:38.501Z,8.50
2023-03-28T19:06:06.324Z,8.00
2023-03-28T19:08:32.759Z,12.80
2023-03-28T19:11:07.357Z,10.30
2023-03-28T19:13:34.019Z,8.40
2023-03-28T19:16:07.805Z,11.50
2023-03-28T19:18:38.978Z,14.90
2023-03-28T19:21:07.011Z,10.70
2023-03-28T19:23:34.261Z,9.30
2023-03-28T19:26:00.834Z,12.20
2023-03-28T19:28:27.383Z,8.40
2023-03-28T19:31:14.055Z,10.00
2023-03-28T19:33:40.860Z,7.90
2023-03-28T19:36:08.142Z,9.50
2023-03-28T19:38:36.463Z,8.00
2023-03-28T19:41:10.018Z,9.20
2023-03-28T19:43:37.739Z,8.50
2023-03-28T19:46:08.373Z,8.80
2023-03-28T19:48:35.850Z,6.90
2023-03-28T19:51:03.306Z,9.60
2023-03-28T19:53:29.761Z,7.60
2023-03-28T19:55:59.451Z,8.80
2023-03-28T19:58:28.299Z,4.20
2023-03-28T20:00:56.941Z,9.20
2023-03-28T20:03:23.760Z,7.70
2023-03-28T20:05:50.555Z,7.90
2023-03-28T20:08:19.152Z,7.80
2023-03-28T20:10:51.273Z,11.10
2023-03-28T20:13:18.540Z,9.50
2023-03-28T20:15:47.644Z,6.30
2023-03-28T20:18:20.833Z,7.00
2023-03-28T20:20:52.809Z,8.30
2023-03-28T20:23:23.403Z,8.70
2023-03-28T20:25:52.211Z,8.10
2023-03-28T20:28:20.927Z,9.60
2023-03-28T20:30:47.730Z,6.90
2023-03-28T20:33:14.118Z,7.60
2023-03-28T20:35:43.330Z,7.50
2023-03-28T20:38:10.605Z,11.10
2023-03-28T20:40:40.677Z,9.30
2023-03-28T20:43:09.923Z,7.00
2023-03-28T20:45:39.290Z,8.00
2023-03-28T20:48:10.395Z,7.50
2023-03-28T20:50:41.525Z,8.10
2023-03-28T20:53:07.958Z,7.70
2023-03-28T20:55:35.761Z,8.10
2023-03-28T20:58:02.254Z,5.20
2023-03-28T21:00:35.761Z,8.10
2023-03-28T21:03:03.649Z,9.20
2023-03-28T21:05:31.223Z,9.50
2023-03-28T21:07:59.057Z,7.80
2023-03-28T21:10:25.579Z,8.80
2023-03-28T21:12:51.976Z,8.40
2023-03-28T21:15:18.846Z,8.70
2023-03-28T21:17:49.156Z,11.90
2023-03-28T21:20:15.711Z,8.60
2023-03-28T21:22:42.119Z,10.10
2023-03-28T21:25:10.416Z,9.90
2023-03-28T21:27:37.221Z,10.40
2023-03-28T21:30:07.895Z,8.00
2023-03-28T21:32:35.893Z,7.40
2023-03-28T21:35:03.932Z,7.40
2023-03-28T21:37:30.558Z,12.10
2023-03-28T21:39:56.959Z,11.10
2023-03-28T21:42:23.382Z,10.60
2023-03-28T21:44:49.780Z,11.70
2023-03-28T21:47:16.343Z,13.40
2023-03-28T21:49:45.874Z,9.10
2023-03-28T21:52:12.810Z,11.60
2023-03-28T21:54:39.215Z,10.60
2023-03-28T21:57:05.740Z,11.80
2023-03-28T21:59:32.170Z,19.20
2023-03-28T22:01:58.984Z,14.00
2023-03-28T22:04:27.797Z,14.50
2023-03-28T22:06:55.354Z,17.00
2023-03-28T22:09:21.763Z,14.30
2023-03-28T22:11:48.839Z,17.50
2023-03-28T22:14:15.651Z,11.80
2023-03-28T22:16:42.562Z,17.80
2023-03-28T22:19:09.694Z,14.60
2023-03-28T22:21:37.153Z,17.50
2023-03-28T22:24:06.585Z,16.00
2023-03-28T22:26:33.098Z,10.70
2023-03-28T22:28:59.626Z,13.10
2023-03-28T22:31:27.754Z,11.50
2023-03-28T22:33:54.968Z,13.60
2023-03-28T22:36:21.837Z,12.50
2023-03-28T22:38:48.846Z,10.10
2023-03-28T22:41:15.734Z,11.10
2023-03-28T22:43:42.630Z,14.20
2023-03-28T22:46:12.753Z,9.80
2023-03-28T22:48:39.297Z,9.90
2023-03-28T22:51:11.534Z,11.20
2023-03-28T22:53:40.234Z,12.40
2023-03-28T22:56:07.634Z,14.60
2023-03-28T22:58:34.248Z,9.10
2023-03-28T23:01:00.792Z,12.90
2023-03-28T23:03:28.087Z,12.00
2023-03-28T23:05:55.143Z,10.10
2023-03-28T23:08:22.184Z,12.60
2023-03-28T23:10:48.823Z,13.30
2023-03-28T23:13:16.502Z,9.50
2023-03-28T23:15:43.664Z,9.50
2023-03-28T23:18:10.772Z,9.40
2023-03-28T23:20:38.063Z,11.20
2023-03-28T23:23:04.435Z,11.90
2023-03-28T23:25:30.802Z,10.60
2023-03-28T23:27:57.190Z,7.30
2023-03-28T23:30:23.611Z,10.40
2023-03-28T23:32:50.097Z,12.70
2023-03-28T23:35:16.544Z,10.60
2023-03-28T23:37:42.921Z,12.60
2023-03-28T23:40:14.211Z,9.40
2023-03-28T23:42:43.769Z,10.20
2023-03-28T23:45:12.834Z,8.80
2023-03-28T23:47:39.372Z,8.90
2023-03-28T23:50:06.646Z,6.90
2023-03-28T23:52:33.550Z,10.90
2023-03-28T23:55:00.185Z,10.30
2023-03-28T23:57:28.662Z,8.30
2023-03-28T23:59:56.541Z,10.10
